Terminal Aerodrome Forecast
Issued by NWS

Home | Current Version | Previous Version | Text Only | Print | Product List | Glossary On
Versions: 1 2 3 4 5 6 7 8 9 10 11 12 13 14 15 16 17 18 19 20
948
FTUS41 KGYX 261123
TAFLEB
TAF
KLEB 261123Z 2612/2712 VRB03KT P6SM SKC
     FM261400 31009KT P6SM SCT050 SCT080
     FM270000 00000KT P6SM SKC
     FM270800 00000KT 1/4SM FG VV001=

USA.gov is the U.S. government's official web portal to all federal, state and local government web resources and services.